createdAt,value
2022-09-01T00:01:39.055Z,22.96
2022-09-01T00:04:06.516Z,22.95
2022-09-01T00:06:33.869Z,22.94
2022-09-01T00:09:03.637Z,22.94
2022-09-01T00:11:31.402Z,22.91
2022-09-01T00:13:58.765Z,22.87
2022-09-01T00:16:25.716Z,22.85
2022-09-01T00:18:53.489Z,22.83
2022-09-01T00:21:23.658Z,22.79
2022-09-01T00:23:51.077Z,22.77
2022-09-01T00:26:18.030Z,22.74
2022-09-01T00:28:45.084Z,22.70
2022-09-01T00:31:12.123Z,22.68
2022-09-01T00:33:39.195Z,22.66
2022-09-01T00:36:06.666Z,22.65
2022-09-01T00:38:33.663Z,22.63
2022-09-01T00:41:01.081Z,22.62
2022-09-01T00:43:38.987Z,22.61
2022-09-01T00:46:07.451Z,22.58
2022-09-01T00:48:36.475Z,22.57
2022-09-01T00:51:05.169Z,22.56
2022-09-01T00:53:32.698Z,22.56
2022-09-01T00:55:59.790Z,22.56
2022-09-01T00:58:26.844Z,22.57
2022-09-01T01:00:53.966Z,22.56
2022-09-01T01:03:20.957Z,22.55
2022-09-01T01:05:54.419Z,22.54
2022-09-01T01:08:34.308Z,22.54
2022-09-01T01:11:02.602Z,22.54
2022-09-01T01:13:32.327Z,22.54
2022-09-01T01:16:00.194Z,22.54
2022-09-01T01:18:27.251Z,22.54
2022-09-01T01:21:23.385Z,22.54
2022-09-01T01:24:02.314Z,22.55
2022-09-01T01:26:29.267Z,22.56
2022-09-01T01:28:56.322Z,22.57
2022-09-01T01:31:25.009Z,22.57
2022-09-01T01:33:56.902Z,22.58
2022-09-01T01:36:33.974Z,22.60
2022-09-01T01:39:03.877Z,22.62
2022-09-01T01:41:32.378Z,22.63
2022-09-01T01:44:00.306Z,22.66
2022-09-01T01:46:27.501Z,22.70
2022-09-01T01:48:55.684Z,22.71
2022-09-01T01:51:27.754Z,22.73
2022-09-01T01:53:56.027Z,22.76
2022-09-01T01:56:26.560Z,22.78
2022-09-01T01:58:56.383Z,22.81
2022-09-01T02:01:25.423Z,22.83
2022-09-01T02:03:55.106Z,22.83
2022-09-01T02:06:25.001Z,22.83
2022-09-01T02:08:52.984Z,22.84
2022-09-01T02:11:20.002Z,22.84
2022-09-01T02:13:47.153Z,22.83
2022-09-01T02:16:14.578Z,22.84
2022-09-01T02:18:49.974Z,22.83
2022-09-01T02:21:20.692Z,22.81
2022-09-01T02:23:49.930Z,22.81
2022-09-01T02:26:19.373Z,22.81
2022-09-01T02:28:54.660Z,22.80
2022-09-01T02:31:23.344Z,22.78
2022-09-01T02:33:50.622Z,22.76
2022-09-01T02:36:19.721Z,22.75
2022-09-01T02:38:53.516Z,22.74
2022-09-01T02:41:25.562Z,22.75
2022-09-01T02:43:52.609Z,22.76
2022-09-01T02:46:24.588Z,22.75
2022-09-01T02:48:52.052Z,22.74
2022-09-01T02:51:25.945Z,22.74
2022-09-01T02:53:53.413Z,22.74
2022-09-01T02:56:25.126Z,22.76
2022-09-01T02:58:53.241Z,22.78
2022-09-01T03:01:26.112Z,22.79
2022-09-01T03:03:55.623Z,22.79
2022-09-01T03:06:24.561Z,22.80
2022-09-01T03:08:59.699Z,22.80
2022-09-01T03:11:29.275Z,22.81
2022-09-01T03:13:56.231Z,22.80
2022-09-01T03:16:23.321Z,22.78
2022-09-01T03:18:51.271Z,22.77
2022-09-01T03:21:18.424Z,22.76
2022-09-01T03:23:46.195Z,22.74
2022-09-01T03:26:13.774Z,22.70
2022-09-01T03:28:40.909Z,22.67
2022-09-01T03:31:09.206Z,22.65
2022-09-01T03:33:36.962Z,22.64
2022-09-01T03:36:05.143Z,22.62
2022-09-01T03:38:44.242Z,22.60
2022-09-01T03:41:13.499Z,22.57
2022-09-01T03:43:46.916Z,22.55
2022-09-01T03:46:22.023Z,22.53
2022-09-01T03:48:52.168Z,22.51
2022-09-01T03:51:21.227Z,22.50
2022-09-01T03:53:49.224Z,22.49
2022-09-01T03:56:16.960Z,22.48
2022-09-01T03:58:47.359Z,22.47
2022-09-01T04:01:14.790Z,22.45
2022-09-01T04:03:42.645Z,22.45
2022-09-01T04:06:10.377Z,22.43
2022-09-01T04:08:37.217Z,22.41
2022-09-01T04:11:10.339Z,22.41
2022-09-01T04:13:39.524Z,22.41
2022-09-01T04:16:10.937Z,22.41
2022-09-01T04:18:40.326Z,22.41
2022-09-01T04:21:10.710Z,22.40
2022-09-01T04:23:37.727Z,22.39
2022-09-01T04:26:14.914Z,22.38
2022-09-01T04:28:45.874Z,22.37
2022-09-01T04:31:19.167Z,22.37
2022-09-01T04:33:47.714Z,22.37
2022-09-01T04:36:30.578Z,22.37
2022-09-01T04:39:01.757Z,22.37
2022-09-01T04:41:32.137Z,22.41
2022-09-01T04:44:01.498Z,22.45
2022-09-01T04:46:29.823Z,22.52
2022-09-01T04:48:57.791Z,22.58
2022-09-01T04:51:28.218Z,22.66
2022-09-01T04:53:56.285Z,22.84
2022-09-01T04:56:23.848Z,23.02
2022-09-01T04:58:51.408Z,23.17
2022-09-01T05:01:23.291Z,23.37
2022-09-01T05:04:01.679Z,23.49
2022-09-01T05:06:34.667Z,23.55
2022-09-01T05:09:01.713Z,23.60
2022-09-01T05:11:29.276Z,23.65
2022-09-01T05:13:58.031Z,23.68
2022-09-01T05:16:26.072Z,23.70
2022-09-01T05:18:54.434Z,23.71
2022-09-01T05:21:24.774Z,23.73
2022-09-01T05:23:52.129Z,23.73
2022-09-01T05:26:23.533Z,23.76
2022-09-01T05:28:55.832Z,23.80
2022-09-01T05:31:28.270Z,23.83
2022-09-01T05:34:02.753Z,23.87
2022-09-01T05:36:34.044Z,23.92
2022-09-01T05:39:02.317Z,23.96
2022-09-01T05:41:29.391Z,24.03
2022-09-01T05:44:00.584Z,24.09
2022-09-01T05:46:28.599Z,24.16
2022-09-01T05:48:56.340Z,24.22
2022-09-01T05:51:43.953Z,24.28
2022-09-01T05:54:12.555Z,24.32
2022-09-01T05:56:43.556Z,24.36
2022-09-01T05:59:27.781Z,24.41
2022-09-01T06:01:55.260Z,24.49
2022-09-01T06:04:23.115Z,24.64
2022-09-01T06:07:08.429Z,24.78
2022-09-01T06:09:38.796Z,24.93
2022-09-01T06:12:06.981Z,25.06
2022-09-01T06:14:34.823Z,25.18
2022-09-01T06:17:03.597Z,25.31
2022-09-01T06:19:36.750Z,25.42
2022-09-01T06:22:05.022Z,25.54
2022-09-01T06:24:32.738Z,25.65
2022-09-01T06:27:01.424Z,25.77
2022-09-01T06:29:31.465Z,25.89
2022-09-01T06:31:59.106Z,25.99
2022-09-01T06:34:26.489Z,26.06
2022-09-01T06:36:56.713Z,26.13
2022-09-01T06:39:26.677Z,26.23
2022-09-01T06:41:54.905Z,26.33
2022-09-01T06:44:23.356Z,26.42
2022-09-01T06:46:51.071Z,26.52
2022-09-01T06:49:18.989Z,26.59
2022-09-01T06:51:50.041Z,26.68
2022-09-01T06:54:21.208Z,26.78
2022-09-01T06:56:51.390Z,26.90
2022-09-01T06:59:20.438Z,27.06
2022-09-01T07:04:43.362Z,27.28
2022-09-01T07:10:18.289Z,27.37
2022-09-01T07:18:28.345Z,27.45
2022-09-01T07:24:07.676Z,27.53
2022-09-01T07:26:33.123Z,27.55
2022-09-01T07:29:04.348Z,27.57
2022-09-01T07:32:43.704Z,27.56
2022-09-01T07:34:40.061Z,27.55
2022-09-01T07:39:56.748Z,27.57
2022-09-01T07:39:57.367Z,27.19
2022-09-01T07:42:32.151Z,27.48
2022-09-01T07:45:28.670Z,27.64
2022-09-01T07:47:57.133Z,27.59
2022-09-01T07:50:38.567Z,27.60
2022-09-01T07:53:09.648Z,27.62
2022-09-01T07:55:44.182Z,27.66
2022-09-01T07:58:12.340Z,27.70
2022-09-01T08:00:40.305Z,27.84
2022-09-01T08:03:07.445Z,28.04
2022-09-01T08:05:34.700Z,28.30
2022-09-01T08:08:03.635Z,28.67
2022-09-01T08:10:36.863Z,29.21
2022-09-01T08:13:04.839Z,29.80
2022-09-01T08:16:05.679Z,30.25
2022-09-01T08:18:21.309Z,30.48
2022-09-01T08:20:49.048Z,30.60
2022-09-01T08:23:18.542Z,30.68
2022-09-01T08:25:48.774Z,30.84
2022-09-01T08:28:16.374Z,30.98
2022-09-01T08:30:49.072Z,30.95
2022-09-01T08:33:19.554Z,30.71
2022-09-01T08:35:48.547Z,30.34
2022-09-01T08:38:15.803Z,30.03
2022-09-01T08:40:43.827Z,29.73
2022-09-01T08:43:42.054Z,29.38
2022-09-01T08:46:17.739Z,29.01
2022-09-01T08:51:40.615Z,28.44
2022-09-01T08:54:29.729Z,28.23
2022-09-01T08:57:05.754Z,27.97
2022-09-01T08:59:35.586Z,27.78
2022-09-01T09:02:23.347Z,27.66
2022-09-01T09:04:57.991Z,27.64
2022-09-01T09:07:40.280Z,27.69
2022-09-01T09:10:17.977Z,27.87
2022-09-01T09:12:53.016Z,28.18
2022-09-01T09:15:37.631Z,28.51
2022-09-01T09:18:20.048Z,28.77
2022-09-01T09:21:07.739Z,28.97
2022-09-01T09:23:36.687Z,29.12
2022-09-01T09:26:03.870Z,29.27
2022-09-01T09:28:30.818Z,29.35
2022-09-01T09:31:45.844Z,29.37
2022-09-01T09:34:19.295Z,29.48
2022-09-01T09:36:53.911Z,29.61
2022-09-01T09:39:23.124Z,29.75
2022-09-01T09:42:09.510Z,29.99
2022-09-01T09:44:45.142Z,30.42
2022-09-01T09:47:44.861Z,30.82
2022-09-01T09:50:17.916Z,31.25
2022-09-01T09:53:24.090Z,31.60
2022-09-01T09:56:01.272Z,32.02
2022-09-01T09:58:43.088Z,32.41
2022-09-01T10:01:16.099Z,32.57
2022-09-01T10:03:52.196Z,32.41
2022-09-01T10:06:32.752Z,32.24
2022-09-01T10:09:04.941Z,32.15
2022-09-01T10:11:41.585Z,32.13
2022-09-01T10:14:51.931Z,32.17
2022-09-01T10:17:46.056Z,32.36
2022-09-01T10:20:21.338Z,32.50
2022-09-01T10:22:49.686Z,32.73
2022-09-01T10:25:21.059Z,32.99
2022-09-01T10:27:51.152Z,33.27
2022-09-01T10:30:22.552Z,33.65
2022-09-01T10:32:55.735Z,33.89
2022-09-01T10:35:27.858Z,34.07
2022-09-01T10:37:55.792Z,34.22
2022-09-01T10:40:34.096Z,34.28
2022-09-01T10:43:37.826Z,34.41
2022-09-01T10:46:24.826Z,34.53
2022-09-01T10:49:02.891Z,34.61
2022-09-01T10:51:39.059Z,34.66
2022-09-01T10:54:51.177Z,34.77
2022-09-01T10:57:27.873Z,35.11
2022-09-01T10:59:58.842Z,35.42
2022-09-01T11:02:27.943Z,35.53
2022-09-01T11:04:55.815Z,35.47
2022-09-01T11:07:56.545Z,35.46
2022-09-01T11:10:36.775Z,35.62
2022-09-01T11:13:15.550Z,35.78
2022-09-01T11:15:44.805Z,35.84
2022-09-01T11:18:32.800Z,36.02
2022-09-01T11:21:29.043Z,36.12
2022-09-01T11:24:33.873Z,35.95
2022-09-01T11:27:00.927Z,35.78
2022-09-01T11:29:53.067Z,35.70
2022-09-01T11:32:25.643Z,35.36
2022-09-01T11:34:52.692Z,35.07
2022-09-01T11:37:22.516Z,34.93
2022-09-01T11:39:51.297Z,34.79
2022-09-01T11:42:23.520Z,34.51
2022-09-01T11:45:03.843Z,34.37
2022-09-01T11:47:36.476Z,34.30
2022-09-01T11:50:18.608Z,34.45
2022-09-01T11:53:06.052Z,34.80
2022-09-01T11:55:44.444Z,35.14
2022-09-01T11:58:29.149Z,35.37
2022-09-01T12:00:57.075Z,35.51
2022-09-01T12:03:26.836Z,35.59
2022-09-01T12:06:03.067Z,35.58
2022-09-01T12:08:32.206Z,35.58
2022-09-01T12:11:22.832Z,35.49
2022-09-01T12:14:00.120Z,35.42
2022-09-01T12:16:27.911Z,35.34
2022-09-01T12:18:55.748Z,35.18
2022-09-01T12:21:31.805Z,35.07
2022-09-01T12:24:18.654Z,35.01
2022-09-01T12:26:47.855Z,35.10
2022-09-01T12:29:15.686Z,35.26
2022-09-01T12:31:44.002Z,35.25
2022-09-01T12:34:38.765Z,35.24
2022-09-01T12:37:20.908Z,35.38
2022-09-01T12:39:52.307Z,35.57
2022-09-01T12:42:19.548Z,35.60
2022-09-01T12:44:51.773Z,35.58
2022-09-01T12:47:34.630Z,35.70
2022-09-01T12:50:10.287Z,35.86
2022-09-01T12:52:48.181Z,35.90
2022-09-01T12:58:13.007Z,35.54
2022-09-01T13:00:55.953Z,35.48
2022-09-01T13:03:24.310Z,35.32
2022-09-01T13:05:52.994Z,35.19
2022-09-01T13:08:21.983Z,35.19
2022-09-01T13:11:01.703Z,35.22
2022-09-01T13:13:29.342Z,35.16
2022-09-01T13:16:00.100Z,35.17
2022-09-01T13:18:28.200Z,35.27
2022-09-01T13:20:56.096Z,35.33
2022-09-01T13:23:23.529Z,35.35
2022-09-01T13:25:50.887Z,35.43
2022-09-01T13:28:18.799Z,35.45
2022-09-01T13:30:49.241Z,35.38
2022-09-01T13:33:19.458Z,35.32
2022-09-01T13:35:51.233Z,35.21
2022-09-01T13:38:18.619Z,35.03
2022-09-01T13:40:47.417Z,34.82
2022-09-01T13:43:16.035Z,34.54
2022-09-01T13:45:45.009Z,34.36
2022-09-01T13:48:16.456Z,34.32
2022-09-01T13:53:33.258Z,34.43
2022-09-01T13:56:00.849Z,34.38
2022-09-01T13:58:27.762Z,34.39
2022-09-01T14:01:01.495Z,34.37
2022-09-01T14:03:32.986Z,34.31
2022-09-01T14:06:00.472Z,34.22
2022-09-01T14:08:28.061Z,34.14
2022-09-01T14:10:55.023Z,33.98
2022-09-01T14:13:23.355Z,33.80
2022-09-01T14:15:52.359Z,33.61
2022-09-01T14:18:22.029Z,33.43
2022-09-01T14:20:51.119Z,33.29
2022-09-01T14:23:18.611Z,33.21
2022-09-01T14:25:47.861Z,33.15
2022-09-01T14:28:16.421Z,33.11
2022-09-01T14:30:47.447Z,33.00
2022-09-01T14:33:14.389Z,32.90
2022-09-01T14:35:43.516Z,32.88
2022-09-01T14:38:11.752Z,32.86
2022-09-01T14:40:39.122Z,32.82
2022-09-01T14:43:10.534Z,32.81
2022-09-01T14:45:38.128Z,32.78
2022-09-01T14:48:05.215Z,32.69
2022-09-01T14:50:32.898Z,32.57
2022-09-01T14:53:00.931Z,32.48
2022-09-01T14:55:29.981Z,32.29
2022-09-01T14:57:57.643Z,32.06
2022-09-01T15:00:28.082Z,31.85
2022-09-01T15:02:55.312Z,31.68
2022-09-01T15:05:22.664Z,31.52
2022-09-01T15:07:49.608Z,31.46
2022-09-01T15:10:24.568Z,31.41
2022-09-01T15:12:54.325Z,31.43
2022-09-01T15:15:21.397Z,31.47
2022-09-01T15:17:48.349Z,31.46
2022-09-01T15:20:34.026Z,31.41
2022-09-01T15:23:01.413Z,31.38
2022-09-01T15:25:28.427Z,31.30
2022-09-01T15:27:55.499Z,31.17
2022-09-01T15:30:23.036Z,31.05
2022-09-01T15:32:52.811Z,30.87
2022-09-01T15:35:20.335Z,30.68
2022-09-01T15:37:51.141Z,30.49
2022-09-01T15:40:18.555Z,30.35
2022-09-01T15:42:45.936Z,30.22
2022-09-01T15:45:16.087Z,30.06
2022-09-01T15:47:45.603Z,29.91
2022-09-01T15:50:21.098Z,29.77
2022-09-01T15:52:50.450Z,29.65
2022-09-01T15:55:19.728Z,29.55
2022-09-01T15:57:47.412Z,29.45
2022-09-01T16:00:16.692Z,29.34
2022-09-01T16:02:44.889Z,29.19
2022-09-01T16:05:11.951Z,29.07
2022-09-01T16:07:38.843Z,28.96
2022-09-01T16:10:06.557Z,28.86
2022-09-01T16:12:35.957Z,28.78
2022-09-01T16:15:03.930Z,28.70
2022-09-01T16:18:00.569Z,28.62
2022-09-01T16:20:35.900Z,28.51
2022-09-01T16:23:14.313Z,28.39
2022-09-01T16:25:44.240Z,28.27
2022-09-01T16:28:35.884Z,28.16
2022-09-01T16:31:12.385Z,28.03
2022-09-01T16:33:39.791Z,27.92
2022-09-01T16:36:17.994Z,27.81
2022-09-01T16:38:55.933Z,27.69
2022-09-01T16:41:48.439Z,27.55
2022-09-01T16:44:22.654Z,27.39
2022-09-01T16:47:03.112Z,27.27
2022-09-01T16:49:50.322Z,27.19
2022-09-01T16:52:24.152Z,27.09
2022-09-01T16:55:26.272Z,26.99
2022-09-01T16:58:29.398Z,26.86
2022-09-01T17:01:17.895Z,26.74
2022-09-01T17:04:12.399Z,26.61
2022-09-01T17:06:57.313Z,26.48
2022-09-01T17:09:54.248Z,26.35
2022-09-01T17:12:33.482Z,26.23
2022-09-01T17:15:27.767Z,26.12
2022-09-01T17:18:22.442Z,26.02
2022-09-01T17:20:55.657Z,25.92
2022-09-01T17:23:30.321Z,25.84
2022-09-01T17:26:01.690Z,25.75
2022-09-01T17:28:38.808Z,25.68
2022-09-01T17:31:17.868Z,25.60
2022-09-01T17:34:06.518Z,25.52
2022-09-01T17:36:46.679Z,25.45
2022-09-01T17:39:24.475Z,25.37
2022-09-01T17:42:05.034Z,25.31
2022-09-01T17:44:35.835Z,25.24
2022-09-01T17:47:03.631Z,25.18
2022-09-01T17:49:45.085Z,25.11
2022-09-01T17:52:19.503Z,25.06
2022-09-01T17:55:14.198Z,25.01
2022-09-01T17:57:48.060Z,24.95
2022-09-01T18:00:28.407Z,24.89
2022-09-01T18:03:22.954Z,24.84
2022-09-01T18:05:53.206Z,24.77
2022-09-01T18:08:30.395Z,24.72
2022-09-01T18:11:01.715Z,24.70
2022-09-01T18:13:52.803Z,24.61
2022-09-01T18:16:28.577Z,24.55
2022-09-01T18:19:00.302Z,24.48
2022-09-01T18:21:32.133Z,24.42
2022-09-01T18:24:16.229Z,24.37
2022-09-01T18:26:45.547Z,24.31
2022-09-01T18:29:12.406Z,24.26
2022-09-01T18:31:47.059Z,24.20
2022-09-01T18:34:49.497Z,24.13
2022-09-01T18:37:34.612Z,24.07
2022-09-01T18:40:11.387Z,24.03
2022-09-01T18:42:49.977Z,23.97
2022-09-01T18:45:44.988Z,23.91
2022-09-01T18:48:16.039Z,23.86
2022-09-01T18:51:01.624Z,23.82
2022-09-01T18:54:18.341Z,23.76
2022-09-01T18:56:57.987Z,23.70
2022-09-01T19:00:01.909Z,23.64
2022-09-01T19:02:36.148Z,23.57
2022-09-01T19:05:25.200Z,23.52
2022-09-01T19:08:13.397Z,23.47
2022-09-01T19:10:51.869Z,23.40
2022-09-01T19:13:28.164Z,23.33
2022-09-01T19:16:15.171Z,23.28
2022-09-01T19:18:52.895Z,23.24
2022-09-01T19:21:20.324Z,23.20
2022-09-01T19:24:10.471Z,23.17
2022-09-01T19:26:46.057Z,23.12
2022-09-01T19:29:24.296Z,23.06
2022-09-01T19:31:56.510Z,23.01
2022-09-01T19:34:26.786Z,22.96
2022-09-01T19:36:56.363Z,22.92
2022-09-01T19:39:28.960Z,22.88
2022-09-01T19:42:08.243Z,22.82
2022-09-01T19:45:06.964Z,22.77
2022-09-01T19:47:52.729Z,22.72
2022-09-01T19:50:31.332Z,22.65
2022-09-01T19:53:02.946Z,22.62
2022-09-01T19:55:39.813Z,22.57
2022-09-01T19:58:09.732Z,22.51
2022-09-01T20:00:52.664Z,22.46
2022-09-01T20:03:23.463Z,22.40
2022-09-01T20:05:55.474Z,22.36
2022-09-01T20:08:23.968Z,22.29
2022-09-01T20:11:19.120Z,22.24
2022-09-01T20:14:23.404Z,22.20
2022-09-01T20:16:51.588Z,22.15
2022-09-01T20:19:27.550Z,22.11
2022-09-01T20:21:55.218Z,22.09
2022-09-01T20:24:37.531Z,22.04
2022-09-01T20:27:32.404Z,22.02
2022-09-01T20:30:07.805Z,21.98
2022-09-01T20:33:08.735Z,21.97
2022-09-01T20:36:03.237Z,21.96
2022-09-01T20:39:12.994Z,21.94
2022-09-01T20:41:52.228Z,21.93
2022-09-01T20:44:44.883Z,21.91
2022-09-01T20:47:12.248Z,21.92
2022-09-01T20:49:39.599Z,21.93
2022-09-01T20:52:27.960Z,21.93
2022-09-01T20:55:11.626Z,21.94
2022-09-01T20:57:44.696Z,21.96
2022-09-01T21:00:23.108Z,21.95
2022-09-01T21:03:12.271Z,21.96
2022-09-01T21:06:06.993Z,21.96
2022-09-01T21:09:13.571Z,21.95
2022-09-01T21:11:46.879Z,21.95
2022-09-01T21:14:38.815Z,21.93
2022-09-01T21:17:34.957Z,21.91
2022-09-01T21:20:17.787Z,21.88
2022-09-01T21:22:44.738Z,21.86
2022-09-01T21:25:12.206Z,21.83
2022-09-01T21:28:06.805Z,21.80
2022-09-01T21:30:35.175Z,21.77
2022-09-01T21:33:03.171Z,21.74
2022-09-01T21:35:30.112Z,21.72
2022-09-01T21:37:57.059Z,21.71
2022-09-01T21:40:24.508Z,21.68
2022-09-01T21:43:03.871Z,21.65
2022-09-01T21:45:30.813Z,21.63
2022-09-01T21:47:57.867Z,21.61
2022-09-01T21:50:25.127Z,21.58
2022-09-01T21:52:52.177Z,21.54
2022-09-01T21:55:22.683Z,21.51
2022-09-01T21:57:53.761Z,21.50
2022-09-01T22:00:23.888Z,21.47
2022-09-01T22:02:50.995Z,21.45
2022-09-01T22:05:18.193Z,21.44
2022-09-01T22:07:45.957Z,21.45
2022-09-01T22:10:15.570Z,21.43
2022-09-01T22:12:43.650Z,21.40
2022-09-01T22:15:11.517Z,21.38
2022-09-01T22:17:38.574Z,21.37
2022-09-01T22:20:07.540Z,21.34
2022-09-01T22:22:34.831Z,21.32
2022-09-01T22:25:13.248Z,21.29
2022-09-01T22:27:40.303Z,21.28
2022-09-01T22:30:08.479Z,21.26
2022-09-01T22:32:36.354Z,21.24
2022-09-01T22:35:08.120Z,21.21
2022-09-01T22:37:35.270Z,21.19
2022-09-01T22:40:02.834Z,21.19
2022-09-01T22:42:29.787Z,21.20
2022-09-01T22:44:56.949Z,21.22
2022-09-01T22:47:23.902Z,21.25
2022-09-01T22:49:50.853Z,21.27
2022-09-01T22:52:18.527Z,21.29
2022-09-01T22:54:45.777Z,21.30
2022-09-01T22:57:12.830Z,21.30
2022-09-01T22:59:42.110Z,21.31
2022-09-01T23:02:10.382Z,21.32
2022-09-01T23:04:38.335Z,21.32
2022-09-01T23:07:05.478Z,21.31
2022-09-01T23:09:32.395Z,21.30
2022-09-01T23:11:59.356Z,21.28
2022-09-01T23:14:27.634Z,21.26
2022-09-01T23:16:55.460Z,21.22
2022-09-01T23:19:22.593Z,21.18
2022-09-01T23:21:51.220Z,21.13
2022-09-01T23:24:19.869Z,21.09
2022-09-01T23:26:48.736Z,21.03
2022-09-01T23:29:15.903Z,20.98
2022-09-01T23:31:44.497Z,20.94
2022-09-01T23:34:13.495Z,20.91
2022-09-01T23:36:40.967Z,20.86
2022-09-01T23:39:08.043Z,20.81
2022-09-01T23:41:36.030Z,20.79
2022-09-01T23:44:04.416Z,20.77
2022-09-01T23:46:33.536Z,20.75
2022-09-01T23:49:01.493Z,20.76
2022-09-01T23:51:28.826Z,20.77
2022-09-01T23:53:56.186Z,20.80
2022-09-01T23:56:25.390Z,20.82
2022-09-01T23:58:52.748Z,20.83
